sensor_id;sensor_type;location;lat;lon;timestamp;P1;durP1;ratioP1;P2;durP2;ratioP2
34930;SDS011;21134;49.646;8.560;2023-08-30T00:01:31;1.40;;;1.30;;
34930;SDS011;21134;49.646;8.560;2023-08-30T00:03:57;1.42;;;1.02;;
34930;SDS011;21134;49.646;8.560;2023-08-30T00:06:24;3.53;;;1.60;;
34930;SDS011;21134;49.646;8.560;2023-08-30T00:08:50;1.05;;;0.93;;
34930;SDS011;21134;49.646;8.560;2023-08-30T00:11:18;14.73;;;0.73;;
34930;SDS011;21134;49.646;8.560;2023-08-30T00:13:45;7.67;;;2.07;;
34930;SDS011;21134;49.646;8.560;2023-08-30T00:16:14;2.10;;;0.80;;
34930;SDS011;21134;49.646;8.560;2023-08-30T00:18:42;2.83;;;1.47;;
34930;SDS011;21134;49.646;8.560;2023-08-30T00:21:10;1.57;;;1.13;;
34930;SDS011;21134;49.646;8.560;2023-08-30T00:23:36;2.50;;;1.50;;
34930;SDS011;21134;49.646;8.560;2023-08-30T00:26:05;3.13;;;2.00;;
34930;SDS011;21134;49.646;8.560;2023-08-30T00:28:33;1.17;;;1.07;;
34930;SDS011;21134;49.646;8.560;2023-08-30T00:31:00;4.07;;;1.40;;
34930;SDS011;21134;49.646;8.560;2023-08-30T00:33:26;4.47;;;1.53;;
34930;SDS011;21134;49.646;8.560;2023-08-30T00:35:56;1.80;;;1.43;;
34930;SDS011;21134;49.646;8.560;2023-08-30T00:38:23;2.13;;;1.70;;
34930;SDS011;21134;49.646;8.560;2023-08-30T00:40:51;2.30;;;1.80;;
34930;SDS011;21134;49.646;8.560;2023-08-30T00:43:18;2.33;;;1.13;;
34930;SDS011;21134;49.646;8.560;2023-08-30T00:45:46;2.90;;;2.10;;
34930;SDS011;21134;49.646;8.560;2023-08-30T00:48:13;1.77;;;1.50;;
34930;SDS011;21134;49.646;8.560;2023-08-30T00:50:41;3.90;;;2.13;;
34930;SDS011;21134;49.646;8.560;2023-08-30T00:53:08;1.23;;;1.13;;
34930;SDS011;21134;49.646;8.560;2023-08-30T00:55:34;1.40;;;0.93;;
34930;SDS011;21134;49.646;8.560;2023-08-30T00:58:01;1.13;;;1.07;;
34930;SDS011;21134;49.646;8.560;2023-08-30T01:00:29;1.27;;;1.17;;
34930;SDS011;21134;49.646;8.560;2023-08-30T01:02:57;2.13;;;1.67;;
34930;SDS011;21134;49.646;8.560;2023-08-30T01:05:24;2.00;;;1.33;;
34930;SDS011;21134;49.646;8.560;2023-08-30T01:07:50;1.80;;;1.50;;
34930;SDS011;21134;49.646;8.560;2023-08-30T01:10:17;1.33;;;1.20;;
34930;SDS011;21134;49.646;8.560;2023-08-30T01:12:48;2.17;;;1.57;;
34930;SDS011;21134;49.646;8.560;2023-08-30T01:15:19;2.67;;;1.90;;
34930;SDS011;21134;49.646;8.560;2023-08-30T01:17:48;1.77;;;1.13;;
34930;SDS011;21134;49.646;8.560;2023-08-30T01:20:26;14.60;;;1.23;;
34930;SDS011;21134;49.646;8.560;2023-08-30T01:22:55;1.70;;;1.17;;
34930;SDS011;21134;49.646;8.560;2023-08-30T01:25:35;3.63;;;2.13;;
34930;SDS011;21134;49.646;8.560;2023-08-30T01:28:10;1.03;;;1.03;;
34930;SDS011;21134;49.646;8.560;2023-08-30T01:30:46;1.33;;;1.23;;
34930;SDS011;21134;49.646;8.560;2023-08-30T01:33:13;1.80;;;1.43;;
34930;SDS011;21134;49.646;8.560;2023-08-30T01:35:42;1.37;;;1.27;;
34930;SDS011;21134;49.646;8.560;2023-08-30T01:38:10;1.97;;;0.87;;
34930;SDS011;21134;49.646;8.560;2023-08-30T01:40:39;2.70;;;1.73;;
34930;SDS011;21134;49.646;8.560;2023-08-30T01:43:15;1.20;;;1.07;;
34930;SDS011;21134;49.646;8.560;2023-08-30T01:45:51;1.30;;;1.30;;
34930;SDS011;21134;49.646;8.560;2023-08-30T01:48:20;1.97;;;1.63;;
34930;SDS011;21134;49.646;8.560;2023-08-30T01:50:47;1.20;;;1.00;;
34930;SDS011;21134;49.646;8.560;2023-08-30T01:53:14;2.13;;;1.93;;
34930;SDS011;21134;49.646;8.560;2023-08-30T01:55:42;2.30;;;1.40;;
34930;SDS011;21134;49.646;8.560;2023-08-30T01:58:08;1.20;;;1.10;;
34930;SDS011;21134;49.646;8.560;2023-08-30T02:00:37;1.40;;;1.30;;
34930;SDS011;21134;49.646;8.560;2023-08-30T02:03:08;2.70;;;1.53;;
34930;SDS011;21134;49.646;8.560;2023-08-30T02:05:35;2.10;;;1.53;;
34930;SDS011;21134;49.646;8.560;2023-08-30T02:08:07;1.17;;;1.07;;
34930;SDS011;21134;49.646;8.560;2023-08-30T02:10:40;1.73;;;1.30;;
34930;SDS011;21134;49.646;8.560;2023-08-30T02:13:13;2.17;;;1.70;;
34930;SDS011;21134;49.646;8.560;2023-08-30T02:15:41;3.53;;;1.07;;
34930;SDS011;21134;49.646;8.560;2023-08-30T02:18:09;2.00;;;1.47;;
34930;SDS011;21134;49.646;8.560;2023-08-30T02:20:36;2.43;;;1.30;;
34930;SDS011;21134;49.646;8.560;2023-08-30T02:23:02;2.50;;;1.67;;
34930;SDS011;21134;49.646;8.560;2023-08-30T02:25:29;2.27;;;1.43;;
34930;SDS011;21134;49.646;8.560;2023-08-30T02:27:56;3.37;;;1.93;;
34930;SDS011;21134;49.646;8.560;2023-08-30T02:30:33;2.17;;;1.37;;
34930;SDS011;21134;49.646;8.560;2023-08-30T02:33:00;1.13;;;1.03;;
34930;SDS011;21134;49.646;8.560;2023-08-30T02:35:26;2.03;;;1.27;;
34930;SDS011;21134;49.646;8.560;2023-08-30T02:38:03;1.70;;;1.60;;
34930;SDS011;21134;49.646;8.560;2023-08-30T02:40:30;2.13;;;1.50;;
34930;SDS011;21134;49.646;8.560;2023-08-30T02:43:05;1.97;;;1.37;;
34930;SDS011;21134;49.646;8.560;2023-08-30T02:45:33;5.90;;;1.37;;
34930;SDS011;21134;49.646;8.560;2023-08-30T02:48:01;1.90;;;1.00;;
34930;SDS011;21134;49.646;8.560;2023-08-30T02:50:34;4.33;;;1.27;;
34930;SDS011;21134;49.646;8.560;2023-08-30T02:53:08;1.57;;;1.40;;
34930;SDS011;21134;49.646;8.560;2023-08-30T02:55:36;1.90;;;1.43;;
34930;SDS011;21134;49.646;8.560;2023-08-30T02:58:08;2.57;;;1.63;;
34930;SDS011;21134;49.646;8.560;2023-08-30T03:00:39;2.38;;;1.40;;
34930;SDS011;21134;49.646;8.560;2023-08-30T03:03:12;1.47;;;1.37;;
34930;SDS011;21134;49.646;8.560;2023-08-30T03:05:47;2.97;;;1.77;;
34930;SDS011;21134;49.646;8.560;2023-08-30T03:08:20;2.10;;;1.37;;
34930;SDS011;21134;49.646;8.560;2023-08-30T03:10:49;0.80;;;0.80;;
34930;SDS011;21134;49.646;8.560;2023-08-30T03:13:18;3.30;;;1.90;;
34930;SDS011;21134;49.646;8.560;2023-08-30T03:15:47;2.10;;;1.47;;
34930;SDS011;21134;49.646;8.560;2023-08-30T03:18:18;1.60;;;1.50;;
34930;SDS011;21134;49.646;8.560;2023-08-30T03:20:59;0.97;;;0.90;;
34930;SDS011;21134;49.646;8.560;2023-08-30T03:23:26;2.63;;;1.63;;
34930;SDS011;21134;49.646;8.560;2023-08-30T03:25:59;1.67;;;1.57;;
34930;SDS011;21134;49.646;8.560;2023-08-30T03:28:29;1.40;;;1.30;;
34930;SDS011;21134;49.646;8.560;2023-08-30T03:30:59;1.83;;;1.50;;
34930;SDS011;21134;49.646;8.560;2023-08-30T03:33:31;2.33;;;1.07;;
34930;SDS011;21134;49.646;8.560;2023-08-30T03:36:00;1.50;;;1.40;;
34930;SDS011;21134;49.646;8.560;2023-08-30T03:38:42;1.77;;;1.50;;
34930;SDS011;21134;49.646;8.560;2023-08-30T03:41:23;1.50;;;1.40;;
34930;SDS011;21134;49.646;8.560;2023-08-30T03:44:04;3.40;;;1.93;;
34930;SDS011;21134;49.646;8.560;2023-08-30T03:46:47;4.33;;;2.30;;
34930;SDS011;21134;49.646;8.560;2023-08-30T03:49:21;3.80;;;1.77;;
34930;SDS011;21134;49.646;8.560;2023-08-30T03:51:48;3.90;;;1.70;;
34930;SDS011;21134;49.646;8.560;2023-08-30T03:54:16;1.83;;;1.20;;
34930;SDS011;21134;49.646;8.560;2023-08-30T03:56:55;3.80;;;2.03;;
34930;SDS011;21134;49.646;8.560;2023-08-30T03:59:37;12.63;;;1.77;;
34930;SDS011;21134;49.646;8.560;2023-08-30T04:02:14;1.77;;;1.37;;
34930;SDS011;21134;49.646;8.560;2023-08-30T04:04:48;6.40;;;2.10;;
34930;SDS011;21134;49.646;8.560;2023-08-30T04:07:21;1.70;;;1.57;;
34930;SDS011;21134;49.646;8.560;2023-08-30T04:09:59;4.00;;;1.57;;
34930;SDS011;21134;49.646;8.560;2023-08-30T04:12:27;3.20;;;2.00;;
34930;SDS011;21134;49.646;8.560;2023-08-30T04:14:57;2.70;;;1.70;;
34930;SDS011;21134;49.646;8.560;2023-08-30T04:17:30;2.43;;;2.03;;
34930;SDS011;21134;49.646;8.560;2023-08-30T04:19:59;2.40;;;2.20;;
34930;SDS011;21134;49.646;8.560;2023-08-30T04:22:27;1.63;;;1.50;;
34930;SDS011;21134;49.646;8.560;2023-08-30T04:24:59;2.47;;;1.77;;
34930;SDS011;21134;49.646;8.560;2023-08-30T04:27:25;3.70;;;2.10;;
34930;SDS011;21134;49.646;8.560;2023-08-30T04:29:55;4.17;;;2.13;;
34930;SDS011;21134;49.646;8.560;2023-08-30T04:32:21;2.27;;;2.07;;
34930;SDS011;21134;49.646;8.560;2023-08-30T04:34:49;2.63;;;2.17;;
34930;SDS011;21134;49.646;8.560;2023-08-30T04:37:29;2.67;;;1.70;;
34930;SDS011;21134;49.646;8.560;2023-08-30T04:40:07;6.87;;;2.30;;
34930;SDS011;21134;49.646;8.560;2023-08-30T04:42:34;2.63;;;2.00;;
34930;SDS011;21134;49.646;8.560;2023-08-30T04:45:01;2.70;;;2.47;;
34930;SDS011;21134;49.646;8.560;2023-08-30T04:47:34;4.17;;;2.13;;
34930;SDS011;21134;49.646;8.560;2023-08-30T04:50:06;2.67;;;2.37;;
34930;SDS011;21134;49.646;8.560;2023-08-30T04:52:38;3.00;;;2.17;;
34930;SDS011;21134;49.646;8.560;2023-08-30T04:55:05;2.13;;;1.77;;
34930;SDS011;21134;49.646;8.560;2023-08-30T04:57:33;3.53;;;2.00;;
34930;SDS011;21134;49.646;8.560;2023-08-30T04:59:59;11.53;;;3.00;;
34930;SDS011;21134;49.646;8.560;2023-08-30T05:02:30;2.13;;;1.93;;
34930;SDS011;21134;49.646;8.560;2023-08-30T05:04:57;2.43;;;1.90;;
34930;SDS011;21134;49.646;8.560;2023-08-30T05:07:24;5.07;;;2.63;;
34930;SDS011;21134;49.646;8.560;2023-08-30T05:09:51;2.37;;;1.97;;
34930;SDS011;21134;49.646;8.560;2023-08-30T05:12:17;5.23;;;3.27;;
34930;SDS011;21134;49.646;8.560;2023-08-30T05:14:44;3.33;;;2.33;;
34930;SDS011;21134;49.646;8.560;2023-08-30T05:17:10;4.13;;;2.37;;
34930;SDS011;21134;49.646;8.560;2023-08-30T05:19:37;2.87;;;2.10;;
34930;SDS011;21134;49.646;8.560;2023-08-30T05:22:03;2.50;;;2.30;;
34930;SDS011;21134;49.646;8.560;2023-08-30T05:24:31;3.07;;;2.73;;
34930;SDS011;21134;49.646;8.560;2023-08-30T05:26:58;4.30;;;2.73;;
34930;SDS011;21134;49.646;8.560;2023-08-30T05:29:25;4.97;;;3.00;;
34930;SDS011;21134;49.646;8.560;2023-08-30T05:31:51;5.10;;;2.73;;
34930;SDS011;21134;49.646;8.560;2023-08-30T05:34:18;2.67;;;1.77;;
34930;SDS011;21134;49.646;8.560;2023-08-30T05:36:44;6.60;;;3.07;;
34930;SDS011;21134;49.646;8.560;2023-08-30T05:39:10;4.50;;;2.87;;
34930;SDS011;21134;49.646;8.560;2023-08-30T05:41:39;2.83;;;2.10;;
34930;SDS011;21134;49.646;8.560;2023-08-30T05:44:05;3.53;;;2.40;;
34930;SDS011;21134;49.646;8.560;2023-08-30T05:46:32;4.88;;;2.55;;
34930;SDS011;21134;49.646;8.560;2023-08-30T05:48:59;4.45;;;3.03;;
34930;SDS011;21134;49.646;8.560;2023-08-30T05:51:27;4.33;;;2.40;;
34930;SDS011;21134;49.646;8.560;2023-08-30T05:53:53;3.03;;;2.37;;
34930;SDS011;21134;49.646;8.560;2023-08-30T05:56:20;4.87;;;2.53;;
34930;SDS011;21134;49.646;8.560;2023-08-30T05:58:48;5.37;;;3.00;;
34930;SDS011;21134;49.646;8.560;2023-08-30T06:01:17;3.20;;;2.33;;
34930;SDS011;21134;49.646;8.560;2023-08-30T06:03:44;4.50;;;2.47;;
34930;SDS011;21134;49.646;8.560;2023-08-30T06:06:10;2.77;;;1.87;;
34930;SDS011;21134;49.646;8.560;2023-08-30T06:08:37;5.20;;;2.47;;
34930;SDS011;21134;49.646;8.560;2023-08-30T06:11:03;6.80;;;3.00;;
34930;SDS011;21134;49.646;8.560;2023-08-30T06:13:30;6.87;;;2.30;;
34930;SDS011;21134;49.646;8.560;2023-08-30T06:15:58;3.67;;;2.53;;
34930;SDS011;21134;49.646;8.560;2023-08-30T06:18:24;4.80;;;2.80;;
34930;SDS011;21134;49.646;8.560;2023-08-30T06:20:52;4.50;;;2.63;;
34930;SDS011;21134;49.646;8.560;2023-08-30T06:23:18;2.10;;;1.85;;
34930;SDS011;21134;49.646;8.560;2023-08-30T06:25:52;5.20;;;2.75;;
34930;SDS011;21134;49.646;8.560;2023-08-30T06:28:19;2.72;;;2.03;;
34930;SDS011;21134;49.646;8.560;2023-08-30T06:30:46;5.40;;;2.60;;
34930;SDS011;21134;49.646;8.560;2023-08-30T06:33:13;3.70;;;2.70;;
34930;SDS011;21134;49.646;8.560;2023-08-30T06:35:40;4.05;;;2.65;;
34930;SDS011;21134;49.646;8.560;2023-08-30T06:38:07;3.90;;;2.90;;
34930;SDS011;21134;49.646;8.560;2023-08-30T06:40:34;3.33;;;2.47;;
34930;SDS011;21134;49.646;8.560;2023-08-30T06:43:01;6.03;;;2.30;;
34930;SDS011;21134;49.646;8.560;2023-08-30T06:45:27;3.53;;;2.47;;
34930;SDS011;21134;49.646;8.560;2023-08-30T06:47:54;3.83;;;2.47;;
34930;SDS011;21134;49.646;8.560;2023-08-30T06:50:21;4.97;;;2.80;;
34930;SDS011;21134;49.646;8.560;2023-08-30T06:52:48;3.72;;;2.95;;
34930;SDS011;21134;49.646;8.560;2023-08-30T06:55:14;5.88;;;2.47;;
34930;SDS011;21134;49.646;8.560;2023-08-30T06:57:41;7.15;;;3.30;;
34930;SDS011;21134;49.646;8.560;2023-08-30T07:00:08;3.15;;;2.50;;
34930;SDS011;21134;49.646;8.560;2023-08-30T07:02:36;3.90;;;2.47;;
34930;SDS011;21134;49.646;8.560;2023-08-30T07:05:03;4.55;;;3.10;;
34930;SDS011;21134;49.646;8.560;2023-08-30T07:07:32;5.00;;;2.55;;
34930;SDS011;21134;49.646;8.560;2023-08-30T07:09:59;4.93;;;2.70;;
34930;SDS011;21134;49.646;8.560;2023-08-30T07:12:25;2.38;;;2.03;;
34930;SDS011;21134;49.646;8.560;2023-08-30T07:14:52;5.10;;;2.85;;
34930;SDS011;21134;49.646;8.560;2023-08-30T07:17:18;3.63;;;2.65;;
34930;SDS011;21134;49.646;8.560;2023-08-30T07:19:45;2.97;;;2.67;;
34930;SDS011;21134;49.646;8.560;2023-08-30T07:22:11;7.45;;;2.33;;
34930;SDS011;21134;49.646;8.560;2023-08-30T07:24:39;5.68;;;3.25;;
34930;SDS011;21134;49.646;8.560;2023-08-30T07:27:06;4.25;;;2.45;;
34930;SDS011;21134;49.646;8.560;2023-08-30T07:29:33;6.93;;;2.58;;
34930;SDS011;21134;49.646;8.560;2023-08-30T07:31:59;4.55;;;3.20;;
34930;SDS011;21134;49.646;8.560;2023-08-30T07:34:26;4.30;;;2.05;;
34930;SDS011;21134;49.646;8.560;2023-08-30T07:36:53;4.10;;;2.28;;
34930;SDS011;21134;49.646;8.560;2023-08-30T07:39:20;4.35;;;2.50;;
34930;SDS011;21134;49.646;8.560;2023-08-30T07:41:48;3.55;;;2.60;;
34930;SDS011;21134;49.646;8.560;2023-08-30T07:44:15;4.30;;;2.33;;
34930;SDS011;21134;49.646;8.560;2023-08-30T07:46:41;2.58;;;2.17;;
34930;SDS011;21134;49.646;8.560;2023-08-30T07:49:08;3.22;;;2.78;;
34930;SDS011;21134;49.646;8.560;2023-08-30T07:51:34;3.35;;;2.40;;
34930;SDS011;21134;49.646;8.560;2023-08-30T07:54:00;3.28;;;2.00;;
34930;SDS011;21134;49.646;8.560;2023-08-30T07:56:27;3.72;;;2.42;;
34930;SDS011;21134;49.646;8.560;2023-08-30T07:58:56;3.97;;;2.78;;
34930;SDS011;21134;49.646;8.560;2023-08-30T08:01:23;2.63;;;2.10;;
34930;SDS011;21134;49.646;8.560;2023-08-30T08:03:49;5.00;;;3.20;;
34930;SDS011;21134;49.646;8.560;2023-08-30T08:06:16;4.28;;;2.28;;
34930;SDS011;21134;49.646;8.560;2023-08-30T08:08:43;2.38;;;2.00;;
34930;SDS011;21134;49.646;8.560;2023-08-30T08:11:10;3.97;;;2.90;;
34930;SDS011;21134;49.646;8.560;2023-08-30T08:13:36;4.03;;;1.73;;
34930;SDS011;21134;49.646;8.560;2023-08-30T08:16:04;2.90;;;2.05;;
34930;SDS011;21134;49.646;8.560;2023-08-30T08:18:32;2.90;;;2.40;;
34930;SDS011;21134;49.646;8.560;2023-08-30T08:20:58;4.10;;;2.45;;
34930;SDS011;21134;49.646;8.560;2023-08-30T08:23:24;5.20;;;2.88;;
34930;SDS011;21134;49.646;8.560;2023-08-30T08:25:56;3.13;;;2.58;;
34930;SDS011;21134;49.646;8.560;2023-08-30T08:28:23;3.22;;;2.25;;
34930;SDS011;21134;49.646;8.560;2023-08-30T08:30:50;6.88;;;2.47;;
34930;SDS011;21134;49.646;8.560;2023-08-30T08:33:18;2.90;;;2.33;;
34930;SDS011;21134;49.646;8.560;2023-08-30T08:35:47;3.35;;;2.17;;
34930;SDS011;21134;49.646;8.560;2023-08-30T08:38:14;3.13;;;2.15;;
34930;SDS011;21134;49.646;8.560;2023-08-30T08:40:40;3.03;;;2.17;;
34930;SDS011;21134;49.646;8.560;2023-08-30T08:43:07;2.50;;;2.28;;
34930;SDS011;21134;49.646;8.560;2023-08-30T08:45:36;5.72;;;2.40;;
34930;SDS011;21134;49.646;8.560;2023-08-30T08:48:03;3.28;;;2.25;;
34930;SDS011;21134;49.646;8.560;2023-08-30T08:50:31;5.32;;;3.05;;
34930;SDS011;21134;49.646;8.560;2023-08-30T08:52:58;4.85;;;2.33;;
34930;SDS011;21134;49.646;8.560;2023-08-30T08:55:25;7.43;;;2.65;;
34930;SDS011;21134;49.646;8.560;2023-08-30T08:57:54;21.35;;;2.55;;
34930;SDS011;21134;49.646;8.560;2023-08-30T09:00:23;6.47;;;2.40;;
34930;SDS011;21134;49.646;8.560;2023-08-30T09:02:50;2.65;;;2.05;;
34930;SDS011;21134;49.646;8.560;2023-08-30T09:05:17;6.78;;;2.13;;
34930;SDS011;21134;49.646;8.560;2023-08-30T09:07:45;5.78;;;2.05;;
34930;SDS011;21134;49.646;8.560;2023-08-30T09:10:13;3.88;;;1.98;;
34930;SDS011;21134;49.646;8.560;2023-08-30T09:12:39;3.83;;;2.33;;
34930;SDS011;21134;49.646;8.560;2023-08-30T09:15:06;3.10;;;2.05;;
34930;SDS011;21134;49.646;8.560;2023-08-30T09:17:35;6.60;;;3.03;;
34930;SDS011;21134;49.646;8.560;2023-08-30T09:20:09;2.38;;;2.05;;
34930;SDS011;21134;49.646;8.560;2023-08-30T09:22:37;9.00;;;3.15;;
34930;SDS011;21134;49.646;8.560;2023-08-30T09:25:06;4.40;;;1.85;;
34930;SDS011;21134;49.646;8.560;2023-08-30T09:27:34;3.58;;;2.55;;
34930;SDS011;21134;49.646;8.560;2023-08-30T09:30:00;1.70;;;1.45;;
34930;SDS011;21134;49.646;8.560;2023-08-30T09:32:27;6.35;;;2.67;;
34930;SDS011;21134;49.646;8.560;2023-08-30T09:34:53;2.35;;;1.80;;
34930;SDS011;21134;49.646;8.560;2023-08-30T09:37:20;2.53;;;2.33;;
34930;SDS011;21134;49.646;8.560;2023-08-30T09:39:50;3.28;;;2.20;;
34930;SDS011;21134;49.646;8.560;2023-08-30T09:42:18;3.20;;;1.92;;
34930;SDS011;21134;49.646;8.560;2023-08-30T09:44:45;2.33;;;1.90;;
34930;SDS011;21134;49.646;8.560;2023-08-30T09:47:12;4.38;;;3.22;;
34930;SDS011;21134;49.646;8.560;2023-08-30T09:49:42;4.47;;;2.33;;
34930;SDS011;21134;49.646;8.560;2023-08-30T09:52:10;10.40;;;3.00;;
34930;SDS011;21134;49.646;8.560;2023-08-30T09:54:41;2.78;;;2.33;;
34930;SDS011;21134;49.646;8.560;2023-08-30T09:57:09;5.13;;;2.10;;
34930;SDS011;21134;49.646;8.560;2023-08-30T09:59:37;3.55;;;2.28;;
34930;SDS011;21134;49.646;8.560;2023-08-30T10:02:05;4.93;;;2.40;;
34930;SDS011;21134;49.646;8.560;2023-08-30T10:04:32;1.80;;;1.70;;
34930;SDS011;21134;49.646;8.560;2023-08-30T10:06:58;2.88;;;1.83;;
34930;SDS011;21134;49.646;8.560;2023-08-30T10:09:27;3.05;;;1.90;;
34930;SDS011;21134;49.646;8.560;2023-08-30T10:11:55;9.25;;;2.17;;
34930;SDS011;21134;49.646;8.560;2023-08-30T10:14:24;1.83;;;1.65;;
34930;SDS011;21134;49.646;8.560;2023-08-30T10:16:52;3.20;;;2.20;;
34930;SDS011;21134;49.646;8.560;2023-08-30T10:19:26;2.15;;;1.70;;
34930;SDS011;21134;49.646;8.560;2023-08-30T10:21:54;2.88;;;1.70;;
34930;SDS011;21134;49.646;8.560;2023-08-30T10:24:26;2.58;;;1.90;;
34930;SDS011;21134;49.646;8.560;2023-08-30T10:26:54;2.03;;;1.70;;
34930;SDS011;21134;49.646;8.560;2023-08-30T10:29:22;6.65;;;1.65;;
34930;SDS011;21134;49.646;8.560;2023-08-30T10:31:52;2.33;;;1.58;;
34930;SDS011;21134;49.646;8.560;2023-08-30T10:34:18;1.60;;;1.50;;
34930;SDS011;21134;49.646;8.560;2023-08-30T10:36:55;1.33;;;1.23;;
34930;SDS011;21134;49.646;8.560;2023-08-30T10:39:27;1.65;;;1.55;;
34930;SDS011;21134;49.646;8.560;2023-08-30T10:42:00;1.77;;;1.30;;
34930;SDS011;21134;49.646;8.560;2023-08-30T10:44:27;1.48;;;1.23;;
34930;SDS011;21134;49.646;8.560;2023-08-30T10:46:55;4.07;;;2.00;;
34930;SDS011;21134;49.646;8.560;2023-08-30T10:49:21;2.15;;;1.52;;
34930;SDS011;21134;49.646;8.560;2023-08-30T10:51:54;1.85;;;1.40;;
34930;SDS011;21134;49.646;8.560;2023-08-30T10:54:21;1.80;;;1.40;;
34930;SDS011;21134;49.646;8.560;2023-08-30T10:56:53;5.13;;;1.42;;
34930;SDS011;21134;49.646;8.560;2023-08-30T10:59:21;2.28;;;1.70;;
34930;SDS011;21134;49.646;8.560;2023-08-30T11:01:50;1.13;;;0.95;;
34930;SDS011;21134;49.646;8.560;2023-08-30T11:04:18;1.33;;;1.23;;
34930;SDS011;21134;49.646;8.560;2023-08-30T11:06:47;2.38;;;1.23;;
34930;SDS011;21134;49.646;8.560;2023-08-30T11:09:15;2.33;;;1.42;;
34930;SDS011;21134;49.646;8.560;2023-08-30T11:11:43;1.50;;;1.40;;
34930;SDS011;21134;49.646;8.560;2023-08-30T11:14:10;2.22;;;1.42;;
34930;SDS011;21134;49.646;8.560;2023-08-30T11:16:37;3.47;;;1.20;;
34930;SDS011;21134;49.646;8.560;2023-08-30T11:19:05;1.02;;;1.02;;
34930;SDS011;21134;49.646;8.560;2023-08-30T11:21:34;1.75;;;1.58;;
34930;SDS011;21134;49.646;8.560;2023-08-30T11:24:02;1.77;;;1.30;;
34930;SDS011;21134;49.646;8.560;2023-08-30T11:26:29;1.25;;;1.15;;
34930;SDS011;21134;49.646;8.560;2023-08-30T11:28:56;1.55;;;1.45;;
34930;SDS011;21134;49.646;8.560;2023-08-30T11:31:23;1.40;;;1.23;;
34930;SDS011;21134;49.646;8.560;2023-08-30T11:33:52;1.45;;;1.35;;
34930;SDS011;21134;49.646;8.560;2023-08-30T11:36:21;2.85;;;1.58;;
34930;SDS011;21134;49.646;8.560;2023-08-30T11:38:49;1.30;;;1.20;;
34930;SDS011;21134;49.646;8.560;2023-08-30T11:41:16;1.02;;;0.85;;
34930;SDS011;21134;49.646;8.560;2023-08-30T11:43:42;3.30;;;1.58;;
34930;SDS011;21134;49.646;8.560;2023-08-30T11:46:10;0.93;;;0.93;;
34930;SDS011;21134;49.646;8.560;2023-08-30T11:48:37;1.45;;;1.20;;
34930;SDS011;21134;49.646;8.560;2023-08-30T11:51:04;2.10;;;1.30;;
34930;SDS011;21134;49.646;8.560;2023-08-30T11:53:31;1.38;;;1.23;;
34930;SDS011;21134;49.646;8.560;2023-08-30T11:55:59;5.22;;;1.30;;
34930;SDS011;21134;49.646;8.560;2023-08-30T11:58:26;2.20;;;1.25;;
34930;SDS011;21134;49.646;8.560;2023-08-30T12:00:52;2.45;;;1.60;;
34930;SDS011;21134;49.646;8.560;2023-08-30T12:03:20;0.88;;;0.88;;
34930;SDS011;21134;49.646;8.560;2023-08-30T12:05:47;1.60;;;1.20;;
34930;SDS011;21134;49.646;8.560;2023-08-30T12:08:17;2.67;;;1.63;;
34930;SDS011;21134;49.646;8.560;2023-08-30T12:10:45;1.40;;;1.23;;
34930;SDS011;21134;49.646;8.560;2023-08-30T12:13:20;1.13;;;1.02;;
34930;SDS011;21134;49.646;8.560;2023-08-30T12:15:47;2.20;;;1.80;;
34930;SDS011;21134;49.646;8.560;2023-08-30T12:18:14;2.40;;;1.23;;
34930;SDS011;21134;49.646;8.560;2023-08-30T12:20:50;1.67;;;1.25;;
34930;SDS011;21134;49.646;8.560;2023-08-30T12:23:21;1.00;;;1.00;;
34930;SDS011;21134;49.646;8.560;2023-08-30T12:25:58;1.27;;;1.17;;
34930;SDS011;21134;49.646;8.560;2023-08-30T12:28:26;1.60;;;1.38;;
34930;SDS011;21134;49.646;8.560;2023-08-30T12:30:54;1.70;;;1.33;;
34930;SDS011;21134;49.646;8.560;2023-08-30T12:33:21;1.35;;;0.90;;
34930;SDS011;21134;49.646;8.560;2023-08-30T12:35:48;1.38;;;1.25;;
34930;SDS011;21134;49.646;8.560;2023-08-30T12:38:14;0.70;;;0.70;;
34930;SDS011;21134;49.646;8.560;2023-08-30T12:40:43;0.90;;;0.77;;
34930;SDS011;21134;49.646;8.560;2023-08-30T12:43:11;0.93;;;0.93;;
34930;SDS011;21134;49.646;8.560;2023-08-30T12:45:39;2.08;;;1.35;;
34930;SDS011;21134;49.646;8.560;2023-08-30T12:48:06;1.58;;;1.42;;
34930;SDS011;21134;49.646;8.560;2023-08-30T12:50:32;1.27;;;1.17;;
34930;SDS011;21134;49.646;8.560;2023-08-30T12:53:00;1.08;;;1.00;;
34930;SDS011;21134;49.646;8.560;2023-08-30T12:55:26;1.05;;;1.00;;
34930;SDS011;21134;49.646;8.560;2023-08-30T12:57:53;1.20;;;0.88;;
34930;SDS011;21134;49.646;8.560;2023-08-30T13:00:19;1.35;;;0.88;;
34930;SDS011;21134;49.646;8.560;2023-08-30T13:02:48;0.82;;;0.68;;
34930;SDS011;21134;49.646;8.560;2023-08-30T13:05:14;0.68;;;0.68;;
34930;SDS011;21134;49.646;8.560;2023-08-30T13:07:41;1.50;;;1.10;;
34930;SDS011;21134;49.646;8.560;2023-08-30T13:10:07;1.13;;;0.90;;
34930;SDS011;21134;49.646;8.560;2023-08-30T13:12:35;1.40;;;1.13;;
34930;SDS011;21134;49.646;8.560;2023-08-30T13:15:03;1.20;;;1.10;;
34930;SDS011;21134;49.646;8.560;2023-08-30T13:17:30;1.05;;;0.73;;
34930;SDS011;21134;49.646;8.560;2023-08-30T13:19:58;1.80;;;0.85;;
34930;SDS011;21134;49.646;8.560;2023-08-30T13:22:24;1.08;;;0.77;;
34930;SDS011;21134;49.646;8.560;2023-08-30T13:24:51;2.72;;;1.20;;
34930;SDS011;21134;49.646;8.560;2023-08-30T13:27:18;1.02;;;0.70;;
34930;SDS011;21134;49.646;8.560;2023-08-30T13:29:44;1.00;;;0.88;;
34930;SDS011;21134;49.646;8.560;2023-08-30T13:32:11;1.02;;;0.90;;
34930;SDS011;21134;49.646;8.560;2023-08-30T13:34:38;7.60;;;1.05;;
34930;SDS011;21134;49.646;8.560;2023-08-30T13:37:06;1.63;;;1.10;;
34930;SDS011;21134;49.646;8.560;2023-08-30T13:39:32;0.35;;;0.35;;
34930;SDS011;21134;49.646;8.560;2023-08-30T13:41:59;1.38;;;1.27;;
34930;SDS011;21134;49.646;8.560;2023-08-30T13:44:25;0.80;;;0.80;;
34930;SDS011;21134;49.646;8.560;2023-08-30T13:46:51;1.02;;;0.90;;
34930;SDS011;21134;49.646;8.560;2023-08-30T13:49:18;0.50;;;0.50;;
34930;SDS011;21134;49.646;8.560;2023-08-30T13:51:45;2.97;;;1.65;;
34930;SDS011;21134;49.646;8.560;2023-08-30T13:54:13;0.77;;;0.77;;
34930;SDS011;21134;49.646;8.560;2023-08-30T13:56:39;1.40;;;0.80;;
34930;SDS011;21134;49.646;8.560;2023-08-30T13:59:06;1.80;;;0.77;;
34930;SDS011;21134;49.646;8.560;2023-08-30T14:01:32;2.42;;;1.13;;
34930;SDS011;21134;49.646;8.560;2023-08-30T14:04:00;2.03;;;0.85;;
34930;SDS011;21134;49.646;8.560;2023-08-30T14:06:29;1.13;;;1.02;;
34930;SDS011;21134;49.646;8.560;2023-08-30T14:08:56;0.98;;;0.65;;
34930;SDS011;21134;49.646;8.560;2023-08-30T14:11:24;1.30;;;1.02;;
34930;SDS011;21134;49.646;8.560;2023-08-30T14:13:50;1.70;;;1.30;;
34930;SDS011;21134;49.646;8.560;2023-08-30T14:16:16;1.80;;;1.10;;
34930;SDS011;21134;49.646;8.560;2023-08-30T14:18:43;1.38;;;1.25;;
34930;SDS011;21134;49.646;8.560;2023-08-30T14:21:10;3.90;;;1.50;;
34930;SDS011;21134;49.646;8.560;2023-08-30T14:23:36;1.25;;;1.10;;
34930;SDS011;21134;49.646;8.560;2023-08-30T14:26:03;1.65;;;1.13;;
34930;SDS011;21134;49.646;8.560;2023-08-30T14:28:35;1.25;;;0.70;;
34930;SDS011;21134;49.646;8.560;2023-08-30T14:31:02;2.20;;;0.90;;
34930;SDS011;21134;49.646;8.560;2023-08-30T14:33:29;1.27;;;0.85;;
34930;SDS011;21134;49.646;8.560;2023-08-30T14:35:55;4.55;;;1.42;;
34930;SDS011;21134;49.646;8.560;2023-08-30T14:38:22;2.97;;;1.40;;
34930;SDS011;21134;49.646;8.560;2023-08-30T14:40:54;0.68;;;0.68;;
34930;SDS011;21134;49.646;8.560;2023-08-30T14:43:21;0.77;;;0.77;;
34930;SDS011;21134;49.646;8.560;2023-08-30T14:45:48;1.33;;;1.17;;
34930;SDS011;21134;49.646;8.560;2023-08-30T14:48:15;1.42;;;1.10;;
34930;SDS011;21134;49.646;8.560;2023-08-30T14:50:41;0.77;;;0.63;;
34930;SDS011;21134;49.646;8.560;2023-08-30T14:53:08;2.38;;;1.38;;
34930;SDS011;21134;49.646;8.560;2023-08-30T14:55:34;0.70;;;0.70;;